Time;durP1;ratioP1;P1;durP2;ratioP2;P2;SDS_P1;SDS_P2;PMS_P1;PMS_P2;Temp;Humidity;BMP_temperature;BMP_pressure;BME280_temperature;BME280_humidity;BME280_pressure;Samples;Min_cycle;Max_cycle;Signal;HPM_P1;HPM_P2
2022/11/10 00:00:44;;;;;;;2.03;1.87;;;14.20;99.90;;;;;;5035555;28;20419;-74
2022/11/10 00:03:10;;;;;;;5.43;2.70;;;14.00;99.90;;;;;;5035546;28;20191;-74
2022/11/10 00:05:37;;;;;;;3.60;3.00;;;14.00;99.90;;;;;;5035730;28;20259;-74
2022/11/10 00:08:09;;;;;;;4.20;2.47;;;14.00;99.90;;;;;;5035983;28;20414;-75
2022/11/10 00:10:55;;;;;;;5.00;3.17;;;14.00;99.90;;;;;;5035583;28;20425;-75
2022/11/10 00:13:29;;;;;;;4.30;2.67;;;13.90;99.90;;;;;;5035159;28;20425;-74
2022/11/10 00:18:42;;;;;;;2.70;2.37;;;13.90;99.90;;;;;;5035691;28;20892;-75
2022/11/10 00:21:09;;;;;;;3.23;2.30;;;13.90;99.90;;;;;;5035510;28;20415;-75
2022/11/10 00:23:35;;;;;;;2.20;2.00;;;13.80;99.90;;;;;;5033703;28;20172;-74
2022/11/10 00:26:01;;;;;;;3.07;2.00;;;13.80;99.90;;;;;;5035247;28;20462;-76
2022/11/10 00:28:29;;;;;;;2.37;1.57;;;13.80;99.90;;;;;;5034936;28;20489;-75
2022/11/10 00:30:55;;;;;;;3.33;1.83;;;13.90;99.90;;;;;;5034781;28;20421;-76
2022/11/10 00:33:20;;;;;;;3.13;1.80;;;14.00;99.90;;;;;;5035403;28;20490;-76
2022/11/10 00:35:46;;;;;;;3.60;2.10;;;14.10;99.90;;;;;;5035589;28;20203;-77
2022/11/10 00:38:11;;;;;;;4.50;1.87;;;14.10;99.90;;;;;;5035138;28;20652;-76
2022/11/10 00:40:37;;;;;;;2.77;1.97;;;14.10;99.90;;;;;;5035037;28;20522;-76
2022/11/10 00:43:02;;;;;;;2.60;1.47;;;14.10;99.90;;;;;;5034259;28;20652;-75
2022/11/10 00:45:28;;;;;;;2.23;2.03;;;14.10;99.90;;;;;;5034726;28;20300;-75
2022/11/10 00:47:53;;;;;;;4.30;2.00;;;14.20;99.90;;;;;;5034853;28;20617;-76
2022/11/10 00:50:19;;;;;;;4.10;1.70;;;14.10;99.90;;;;;;5035460;28;20536;-76
2022/11/10 00:52:45;;;;;;;2.00;1.87;;;14.10;99.90;;;;;;5034774;28;20585;-76
2022/11/10 00:55:10;;;;;;;1.70;1.60;;;14.20;99.90;;;;;;5034676;28;20252;-75
2022/11/10 00:57:36;;;;;;;2.13;1.90;;;14.20;99.90;;;;;;5032349;28;20236;-75
2022/11/10 01:00:02;;;;;;;1.97;1.60;;;14.20;99.90;;;;;;5034429;28;20201;-75
2022/11/10 01:02:28;;;;;;;3.70;2.07;;;14.20;99.90;;;;;;5033382;28;20668;-76
2022/11/10 01:04:54;;;;;;;2.40;1.73;;;14.20;99.90;;;;;;5034828;28;20413;-76
2022/11/10 01:07:19;;;;;;;2.83;1.93;;;14.20;99.90;;;;;;5033921;28;20178;-75
2022/11/10 01:09:45;;;;;;;4.23;2.27;;;14.20;99.90;;;;;;5034389;28;20178;-75
2022/11/10 01:12:10;;;;;;;3.00;2.27;;;14.20;99.90;;;;;;5034195;28;20281;-76
2022/11/10 01:14:36;;;;;;;3.90;2.20;;;14.00;99.90;;;;;;5033820;28;20635;-76
2022/11/10 01:17:02;;;;;;;3.97;1.70;;;13.90;99.90;;;;;;5033021;28;20184;-75
2022/11/10 01:19:27;;;;;;;3.43;1.70;;;14.00;99.90;;;;;;5034525;28;20221;-76
2022/11/10 01:21:53;;;;;;;7.13;2.20;;;13.90;99.90;;;;;;5033334;28;20195;-76
2022/11/10 01:24:20;;;;;;;5.17;1.87;;;13.90;99.90;;;;;;5033793;28;20264;-76
2022/11/10 01:26:46;;;;;;;4.43;1.70;;;13.80;99.90;;;;;;5033257;28;20185;-75
2022/11/10 01:29:12;;;;;;;2.00;1.70;;;13.70;99.90;;;;;;5032877;28;20414;-75
2022/11/10 01:31:37;;;;;;;3.53;2.13;;;13.70;99.90;;;;;;5033887;28;20450;-75
2022/11/10 01:34:03;;;;;;;4.40;2.20;;;13.60;99.90;;;;;;5033759;28;20181;-75
2022/11/10 01:36:28;;;;;;;2.80;2.50;;;13.60;99.90;;;;;;5034527;28;20617;-75
2022/11/10 01:38:54;;;;;;;3.63;2.30;;;13.60;99.90;;;;;;5035264;28;20184;-76
2022/11/10 01:41:20;;;;;;;3.23;2.37;;;13.60;99.90;;;;;;5033574;28;20564;-76
2022/11/10 01:43:45;;;;;;;4.57;2.50;;;13.60;99.90;;;;;;5032137;28;20178;-75
2022/11/10 01:46:12;;;;;;;3.53;2.03;;;13.70;99.90;;;;;;5033722;28;20181;-75
2022/11/10 01:48:57;;;;;;;8.20;2.53;;;13.70;99.90;;;;;;5033772;28;20173;-75
2022/11/10 01:51:43;;;;;;;5.30;2.60;;;13.70;99.90;;;;;;5034041;28;20440;-75
2022/11/10 01:54:12;;;;;;;3.80;2.60;;;13.60;99.90;;;;;;5033938;28;20447;-75
2022/11/10 01:56:50;;;;;;;5.87;2.73;;;13.40;99.90;;;;;;5034094;28;20415;-75
2022/11/10 01:59:24;;;;;;;2.40;2.20;;;13.30;99.90;;;;;;5033364;28;20431;-75
2022/11/10 02:01:53;;;;;;;2.90;2.43;;;13.30;99.90;;;;;;5033791;28;20425;-75
2022/11/10 02:04:20;;;;;;;3.57;2.50;;;13.10;99.90;;;;;;5032538;28;20420;-76
2022/11/10 02:06:47;;;;;;;8.23;3.40;;;13.10;99.90;;;;;;5033510;28;20399;-75
2022/11/10 02:09:13;;;;;;;4.10;2.70;;;12.80;99.90;;;;;;5032237;28;20452;-75
2022/11/10 02:11:40;;;;;;;4.83;3.10;;;12.70;99.90;;;;;;5033689;28;20522;-75
2022/11/10 02:14:07;;;;;;;3.13;2.13;;;12.70;99.90;;;;;;5031553;28;20668;-75
2022/11/10 02:16:33;;;;;;;2.70;2.50;;;12.70;99.90;;;;;;5031322;28;20416;-75
2022/11/10 02:19:15;;;;;;;3.43;1.87;;;12.60;99.90;;;;;;5025039;28;20437;-76
2022/11/10 02:21:41;;;;;;;3.40;2.50;;;12.60;99.90;;;;;;5033427;28;20279;-75
2022/11/10 02:24:07;;;;;;;4.80;2.10;;;12.60;99.90;;;;;;5033531;28;20486;-76
2022/11/10 02:26:33;;;;;;;3.30;2.40;;;12.40;99.90;;;;;;5033942;28;20634;-75
2022/11/10 02:28:58;;;;;;;5.97;2.80;;;12.40;99.90;;;;;;5033769;28;20403;-74
2022/11/10 02:31:24;;;;;;;4.93;2.60;;;12.50;99.90;;;;;;5034068;28;20810;-75
2022/11/10 02:33:49;;;;;;;6.83;3.00;;;12.40;99.90;;;;;;5033785;28;20625;-76
2022/11/10 02:36:15;;;;;;;3.10;2.30;;;12.40;99.90;;;;;;5034904;28;20754;-76
2022/11/10 02:38:40;;;;;;;4.53;3.23;;;12.40;99.90;;;;;;5034403;28;20177;-75
2022/11/10 02:41:06;;;;;;;5.33;3.37;;;12.30;99.90;;;;;;5034619;28;20178;-75
2022/11/10 02:43:32;;;;;;;6.57;2.90;;;12.20;99.90;;;;;;5034221;28;20179;-74
2022/11/10 02:45:58;;;;;;;10.40;3.53;;;12.20;99.90;;;;;;5034168;28;20226;-75
2022/11/10 02:48:23;;;;;;;6.10;3.50;;;12.10;99.90;;;;;;5034971;28;20429;-75
2022/11/10 02:50:49;;;;;;;6.80;3.40;;;12.00;99.90;;;;;;5035408;28;20210;-76
2022/11/10 02:53:14;;;;;;;6.03;2.67;;;12.00;99.90;;;;;;5037209;28;20183;-76
2022/11/10 02:55:40;;;;;;;6.80;2.83;;;12.00;99.90;;;;;;5037116;28;20202;-75
2022/11/10 02:58:06;;;;;;;5.10;3.10;;;12.10;99.90;;;;;;5037382;28;20544;-75
2022/11/10 03:00:31;;;;;;;2.60;1.90;;;12.00;99.90;;;;;;5037714;28;20405;-75
2022/11/10 03:03:00;;;;;;;4.00;2.43;;;12.00;99.90;;;;;;5055810;28;20182;-75
2022/11/10 03:05:25;;;;;;;7.07;2.70;;;11.90;99.90;;;;;;5056315;28;20171;-75
2022/11/10 03:07:56;;;;;;;4.47;2.83;;;11.90;99.90;;;;;;5055989;28;20427;-76
2022/11/10 03:10:22;;;;;;;5.10;2.40;;;11.90;99.90;;;;;;5054228;28;20171;-75
2022/11/10 03:12:47;;;;;;;8.87;2.47;;;11.80;99.90;;;;;;5043273;28;20471;-75
2022/11/10 03:15:13;;;;;;;11.73;3.13;;;11.80;99.90;;;;;;5046250;28;20456;-75
2022/11/10 03:17:39;;;;;;;5.80;3.23;;;11.70;99.90;;;;;;5056074;28;20174;-75
2022/11/10 03:20:05;;;;;;;5.23;2.77;;;11.70;99.90;;;;;;5056340;28;20168;-76
2022/11/10 03:22:30;;;;;;;4.20;2.93;;;11.70;99.90;;;;;;5055218;28;20451;-75
2022/11/10 03:24:56;;;;;;;5.10;2.60;;;11.70;99.90;;;;;;5050919;28;20504;-75
2022/11/10 03:27:21;;;;;;;4.27;2.83;;;11.70;99.90;;;;;;5032128;28;20242;-75
2022/11/10 03:29:47;;;;;;;7.80;3.60;;;11.80;99.90;;;;;;5032174;28;20540;-75
2022/11/10 03:32:12;;;;;;;5.90;3.20;;;11.80;99.90;;;;;;5062382;22;20233;-73
2022/11/10 03:34:38;;;;;;;2.60;2.20;;;12.00;99.90;;;;;;5053216;28;20342;-73
2022/11/10 03:37:03;;;;;;;6.07;3.07;;;12.00;99.90;;;;;;5052667;28;20169;-71
2022/11/10 03:39:29;;;;;;;8.87;3.27;;;12.00;99.90;;;;;;5052557;28;20631;-73
2022/11/10 03:41:55;;;;;;;4.20;2.87;;;12.10;99.90;;;;;;5058887;28;20179;-73
2022/11/10 03:44:20;;;;;;;7.07;3.23;;;12.10;99.90;;;;;;5059009;28;20180;-73
2022/11/10 03:46:46;;;;;;;4.33;3.03;;;12.10;99.90;;;;;;5052554;28;20167;-73
2022/11/10 03:49:11;;;;;;;6.20;3.03;;;12.10;99.90;;;;;;5052763;28;20177;-71
2022/11/10 03:51:37;;;;;;;6.10;3.30;;;12.10;99.90;;;;;;5052695;28;20284;-72
2022/11/10 03:54:02;;;;;;;4.73;2.97;;;12.00;99.90;;;;;;5055714;28;20214;-72
2022/11/10 03:56:28;;;;;;;5.57;3.67;;;11.90;99.90;;;;;;5056140;28;20171;-71
2022/11/10 03:58:53;;;;;;;6.43;3.20;;;11.80;99.90;;;;;;5055747;28;20168;-70
2022/11/10 04:01:19;;;;;;;7.20;3.57;;;11.80;99.90;;;;;;5056059;28;20565;-72
2022/11/10 04:03:45;;;;;;;5.83;3.27;;;11.70;99.90;;;;;;5055987;28;20194;-73
2022/11/10 04:08:57;;;;;;;6.73;3.50;;;11.80;99.90;;;;;;5055928;28;20214;-72
2022/11/10 04:16:51;;;;;;;6.93;3.23;;;11.90;99.90;;;;;;5056115;28;20436;-72
2022/11/10 04:19:17;;;;;;;4.47;3.23;;;11.80;99.90;;;;;;5055772;28;20416;-71
2022/11/10 04:21:42;;;;;;;6.20;3.10;;;11.80;99.90;;;;;;5056258;28;20229;-73
2022/11/10 04:24:08;;;;;;;5.07;2.70;;;11.90;99.90;;;;;;5055793;28;20265;-72
2022/11/10 04:26:37;;;;;;;6.57;3.70;;;11.80;99.90;;;;;;5055691;28;20181;-72
2022/11/10 04:29:07;;;;;;;9.80;3.40;;;11.80;99.90;;;;;;5055372;28;20198;-72
2022/11/10 04:31:36;;;;;;;6.83;2.43;;;11.90;99.90;;;;;;5055287;28;20432;-72
2022/11/10 04:34:12;;;;;;;4.00;2.40;;;11.90;99.90;;;;;;5055694;28;20382;-73
2022/11/10 04:36:40;;;;;;;5.90;2.77;;;12.00;99.90;;;;;;5054144;28;20413;-72
2022/11/10 04:39:06;;;;;;;4.13;3.07;;;12.00;99.90;;;;;;5053932;28;20489;-72
2022/11/10 04:41:32;;;;;;;3.83;2.50;;;12.00;99.90;;;;;;5055255;28;20424;-73
2022/11/10 04:43:59;;;;;;;4.77;2.93;;;12.00;99.90;;;;;;5054086;28;20428;-71
2022/11/10 04:46:38;;;;;;;7.90;2.90;;;11.70;99.90;;;;;;5055563;28;20201;-73
2022/11/10 04:49:05;;;;;;;4.07;3.63;;;11.80;99.90;;;;;;5055784;28;20416;-73
2022/11/10 04:51:33;;;;;;;6.90;3.50;;;11.80;99.90;;;;;;5055185;28;20439;-71
2022/11/10 04:54:00;;;;;;;6.57;3.47;;;11.70;99.90;;;;;;5055151;28;20445;-73
2022/11/10 04:56:26;;;;;;;6.33;3.67;;;11.60;99.90;;;;;;5054982;28;20550;-72
2022/11/10 04:58:53;;;;;;;4.67;3.77;;;11.60;99.90;;;;;;5054511;28;20432;-73
2022/11/10 05:01:20;;;;;;;12.40;3.60;;;11.60;99.90;;;;;;5055028;28;20402;-71
2022/11/10 05:03:47;;;;;;;4.67;3.20;;;11.50;99.90;;;;;;5053735;28;20401;-72
2022/11/10 05:06:13;;;;;;;10.43;4.07;;;11.40;99.90;;;;;;5054452;28;20414;-72
2022/11/10 05:08:40;;;;;;;4.47;2.93;;;11.40;99.90;;;;;;5054518;28;20424;-71
2022/11/10 05:11:06;;;;;;;7.77;4.13;;;11.30;99.90;;;;;;5072044;28;20416;-72
2022/11/10 05:13:32;;;;;;;6.20;3.07;;;11.20;99.90;;;;;;5070601;28;20518;-73
2022/11/10 05:15:57;;;;;;;6.00;3.03;;;11.10;99.90;;;;;;5064028;28;20660;-72
2022/11/10 05:18:23;;;;;;;4.90;2.97;;;11.10;99.90;;;;;;5074528;28;20170;-70
2022/11/10 05:20:49;;;;;;;5.93;3.30;;;11.10;99.90;;;;;;5074191;28;20177;-72
2022/11/10 05:25:58;;;;;;;7.10;3.30;;;11.10;99.90;;;;;;5056616;28;20186;-71
2022/11/10 05:28:24;;;;;;;5.73;3.67;;;11.00;99.90;;;;;;5066176;28;20407;-71
2022/11/10 05:30:50;;;;;;;5.63;3.00;;;11.10;99.90;;;;;;5074021;28;20625;-72
2022/11/10 05:33:15;;;;;;;4.03;3.63;;;11.10;99.90;;;;;;5074148;28;20213;-70
2022/11/10 05:35:41;;;;;;;5.03;4.03;;;10.90;99.90;;;;;;5074097;28;20550;-72
2022/11/10 05:38:06;;;;;;;8.97;3.60;;;10.90;99.90;;;;;;5073977;28;20262;-72
2022/11/10 05:40:33;;;;;;;6.53;4.70;;;10.80;99.90;;;;;;5074031;28;20174;-71
2022/11/10 05:42:59;;;;;;;4.10;3.63;;;10.70;99.90;;;;;;5073937;28;20190;-71
2022/11/10 05:45:27;;;;;;;6.10;4.50;;;10.70;99.90;;;;;;5053809;28;20967;-72
2022/11/10 05:47:53;;;;;;;7.90;4.03;;;10.60;99.90;;;;;;5054121;28;20213;-72
2022/11/10 05:50:21;;;;;;;5.70;4.53;;;10.50;99.90;;;;;;5052506;28;20413;-71
2022/11/10 05:52:52;;;;;;;7.70;4.20;;;10.50;99.90;;;;;;5053832;28;20464;-72
2022/11/10 05:55:20;;;;;;;4.90;4.20;;;10.30;99.90;;;;;;5053757;28;20843;-72
2022/11/10 05:57:47;;;;;;;5.87;3.97;;;10.30;99.90;;;;;;5054216;28;20399;-72
2022/11/10 06:00:15;;;;;;;3.70;2.93;;;10.30;99.90;;;;;;5053001;28;20457;-71
2022/11/10 06:02:42;;;;;;;4.30;3.27;;;10.30;99.90;;;;;;5053603;28;20435;-72
2022/11/10 06:05:08;;;;;;;3.40;3.10;;;10.30;99.90;;;;;;5067207;28;20482;-72
2022/11/10 06:07:34;;;;;;;5.30;4.03;;;10.40;99.90;;;;;;5073498;28;20983;-72
2022/11/10 06:09:59;;;;;;;5.87;3.17;;;10.50;99.90;;;;;;5073705;28;20495;-71
2022/11/10 06:12:29;;;;;;;6.60;3.10;;;10.40;99.90;;;;;;5073379;28;20196;-72
2022/11/10 06:14:55;;;;;;;4.50;3.00;;;10.50;99.90;;;;;;5058482;28;20668;-72
2022/11/10 06:17:21;;;;;;;8.00;3.30;;;10.40;99.90;;;;;;5053679;28;20538;-72
2022/11/10 06:19:46;;;;;;;5.40;3.90;;;10.40;99.90;;;;;;5053504;28;20454;-73
2022/11/10 06:22:12;;;;;;;5.17;3.93;;;10.40;99.90;;;;;;5053272;28;20665;-73
2022/11/10 06:24:37;;;;;;;4.87;3.77;;;10.40;99.90;;;;;;5053441;28;20704;-71
2022/11/10 06:27:03;;;;;;;4.03;2.87;;;10.40;99.90;;;;;;5052244;28;20590;-72
2022/11/10 06:29:28;;;;;;;4.10;3.60;;;10.50;99.90;;;;;;5053041;28;20669;-72
2022/11/10 06:31:54;;;;;;;5.13;4.50;;;10.50;99.90;;;;;;5053009;28;20210;-73
2022/11/10 06:34:19;;;;;;;6.23;4.50;;;10.50;99.90;;;;;;5053305;28;20173;-71
2022/11/10 06:36:45;;;;;;;5.67;3.47;;;10.50;99.90;;;;;;5052905;28;20165;-71
2022/11/10 06:39:11;;;;;;;5.87;3.63;;;10.50;99.90;;;;;;5052891;28;20669;-72
2022/11/10 06:41:36;;;;;;;5.70;3.17;;;10.50;99.90;;;;;;5053101;28;20669;-73
2022/11/10 06:44:02;;;;;;;3.73;2.57;;;10.60;99.90;;;;;;5051523;28;20612;-71
2022/11/10 06:46:27;;;;;;;8.37;3.07;;;10.60;99.90;;;;;;5052857;28;20205;-72
2022/11/10 06:48:53;;;;;;;5.23;3.57;;;10.60;99.90;;;;;;5053074;28;20171;-72
2022/11/10 06:51:18;;;;;;;3.37;2.40;;;10.60;99.90;;;;;;5052997;28;20176;-72
2022/11/10 06:53:44;;;;;;;4.13;2.63;;;10.70;99.90;;;;;;5053438;28;20619;-72
2022/11/10 06:56:09;;;;;;;7.33;3.10;;;10.70;99.90;;;;;;5053371;28;20196;-71
2022/11/10 06:58:35;;;;;;;5.30;3.33;;;10.80;99.90;;;;;;5051521;28;20540;-72
2022/11/10 07:01:01;;;;;;;7.97;3.07;;;10.90;99.90;;;;;;5052747;28;20555;-73
2022/11/10 07:03:26;;;;;;;6.63;3.67;;;10.90;99.90;;;;;;5052945;28;20261;-72
2022/11/10 07:05:52;;;;;;;4.00;2.50;;;10.90;99.90;;;;;;5052679;28;20169;-71
2022/11/10 07:08:18;;;;;;;4.07;2.70;;;11.00;99.90;;;;;;5053263;28;20496;-73
2022/11/10 07:10:54;;;;;;;4.93;3.30;;;11.10;99.90;;;;;;5051412;28;20173;-70
2022/11/10 07:13:20;;;;;;;36.50;28.70;;;11.20;99.90;;;;;;5052373;28;20422;-72
2022/11/10 07:15:46;;;;;;;5.83;3.63;;;11.20;99.90;;;;;;5052445;28;20946;-72
2022/11/10 07:18:11;;;;;;;8.03;3.63;;;11.30;99.90;;;;;;5052903;28;20414;-72
2022/11/10 07:20:37;;;;;;;7.57;3.80;;;11.40;99.90;;;;;;5052752;28;20162;-71
2022/11/10 07:23:07;;;;;;;5.17;2.87;;;11.40;99.90;;;;;;5052834;28;20191;-73
2022/11/10 07:25:35;;;;;;;5.10;3.10;;;11.50;99.90;;;;;;5052801;28;20203;-73
2022/11/10 07:28:03;;;;;;;8.23;3.93;;;11.60;99.90;;;;;;5054659;28;20411;-72
2022/11/10 07:30:32;;;;;;;5.13;3.77;;;11.60;99.90;;;;;;5054523;28;20444;-72
2022/11/10 07:32:59;;;;;;;5.40;3.40;;;11.50;99.90;;;;;;5073165;28;20476;-70
2022/11/10 07:35:27;;;;;;;8.03;4.53;;;11.60;99.90;;;;;;5076028;28;20440;-71
2022/11/10 07:37:54;;;;;;;4.73;3.03;;;11.70;99.90;;;;;;5075935;28;20815;-73
2022/11/10 07:40:20;;;;;;;5.80;4.03;;;11.80;99.90;;;;;;5076444;28;20507;-73
2022/11/10 07:42:45;;;;;;;5.87;3.73;;;11.80;99.90;;;;;;5075817;28;20428;-73
2022/11/10 07:45:11;;;;;;;5.00;3.70;;;11.80;99.90;;;;;;5057781;28;20421;-72
2022/11/10 07:47:36;;;;;;;3.03;2.70;;;11.80;99.90;;;;;;5056420;28;20250;-72
2022/11/10 07:50:02;;;;;;;5.90;3.40;;;11.80;99.90;;;;;;5056530;28;20214;-73
2022/11/10 07:52:28;;;;;;;7.90;2.90;;;11.80;99.90;;;;;;5056299;28;20190;-72
2022/11/10 07:54:53;;;;;;;3.40;2.80;;;11.80;99.90;;;;;;5055613;28;20623;-72
2022/11/10 07:57:19;;;;;;;3.60;3.03;;;11.80;99.90;;;;;;5054546;28;20175;-75
2022/11/10 07:59:44;;;;;;;5.13;2.53;;;11.80;99.90;;;;;;5055670;28;20174;-76
2022/11/10 08:02:11;;;;;;;5.00;3.07;;;11.90;99.90;;;;;;5058421;28;20183;-75
2022/11/10 08:04:36;;;;;;;5.80;3.20;;;11.90;99.90;;;;;;5074849;28;20170;-75
2022/11/10 08:07:02;;;;;;;4.83;2.60;;;11.90;99.90;;;;;;5076161;28;20820;-73
2022/11/10 08:09:28;;;;;;;7.20;4.03;;;12.00;99.90;;;;;;5075926;28;20185;-73
2022/11/10 08:11:53;;;;;;;7.90;4.60;;;12.00;99.90;;;;;;5075814;28;21002;-73
2022/11/10 08:14:19;;;;;;;8.30;4.80;;;11.90;99.90;;;;;;5065563;28;20688;-72
2022/11/10 08:16:44;;;;;;;4.47;3.93;;;12.00;99.90;;;;;;5055857;28;20220;-73
2022/11/10 08:19:10;;;;;;;5.53;4.27;;;12.10;99.90;;;;;;5055718;28;20178;-72
2022/11/10 08:21:35;;;;;;;6.53;4.43;;;12.00;99.90;;;;;;5070930;28;20197;-73
2022/11/10 08:24:01;;;;;;;7.00;5.00;;;12.10;99.90;;;;;;5075749;28;20680;-73
2022/11/10 08:26:26;;;;;;;5.07;3.57;;;12.10;99.90;;;;;;5075695;28;20171;-73
2022/11/10 08:28:52;;;;;;;3.80;2.97;;;12.10;99.90;;;;;;5075512;28;20176;-73
2022/11/10 08:31:17;;;;;;;6.00;3.10;;;12.00;99.90;;;;;;5075136;28;20180;-72
2022/11/10 08:33:43;;;;;;;4.93;2.50;;;12.10;99.90;;;;;;5075942;28;20176;-73
2022/11/10 08:36:09;;;;;;;2.63;2.30;;;12.10;99.90;;;;;;5074584;28;20281;-73
2022/11/10 08:38:34;;;;;;;4.90;2.40;;;12.20;99.90;;;;;;5075034;28;20538;-70
2022/11/10 08:41:00;;;;;;;2.77;1.83;;;12.30;99.90;;;;;;5075875;28;20545;-76
2022/11/10 08:43:27;;;;;;;4.80;1.93;;;12.40;99.90;;;;;;5071828;28;20239;-72
2022/11/10 08:45:55;;;;;;;6.00;2.63;;;12.40;99.90;;;;;;5054898;28;20174;-72
2022/11/10 08:48:21;;;;;;;5.70;2.67;;;12.40;99.90;;;;;;5055140;28;20417;-73
2022/11/10 08:50:48;;;;;;;3.13;2.33;;;12.50;99.90;;;;;;5055476;28;20403;-72
2022/11/10 08:53:32;;;;;;;4.50;1.90;;;12.40;99.90;;;;;;5054982;28;20185;-73
2022/11/10 08:55:58;;;;;;;2.70;1.63;;;12.50;99.90;;;;;;5054865;28;20446;-73
2022/11/10 08:58:24;;;;;;;4.57;1.93;;;12.60;99.90;;;;;;5074640;28;20463;-71
2022/11/10 09:00:50;;;;;;;6.90;2.17;;;12.60;99.90;;;;;;5075002;28;20404;-73
2022/11/10 09:03:21;;;;;;;2.67;1.90;;;12.70;99.90;;;;;;5074907;28;20548;-73
2022/11/10 09:05:48;;;;;;;5.47;1.70;;;12.70;99.90;;;;;;5075485;28;20712;-73
2022/11/10 09:08:15;;;;;;;4.43;1.93;;;12.70;99.90;;;;;;5075204;28;20407;-72
2022/11/10 09:10:46;;;;;;;5.33;2.50;;;12.80;99.90;;;;;;5075432;28;20413;-72
2022/11/10 09:13:13;;;;;;;1.60;1.50;;;12.80;99.90;;;;;;5074967;28;20419;-73
2022/11/10 09:15:40;;;;;;;12.97;2.23;;;12.90;99.90;;;;;;5054546;28;20448;-74
2022/11/10 09:18:07;;;;;;;4.20;2.17;;;13.00;99.90;;;;;;5054878;28;20925;-73
2022/11/10 09:20:34;;;;;;;2.90;1.47;;;13.10;99.90;;;;;;5054990;28;20493;-73
2022/11/10 09:23:18;;;;;;;7.03;2.23;;;13.10;99.90;;;;;;5054545;28;20425;-73
2022/11/10 09:25:49;;;;;;;2.93;2.20;;;13.20;99.90;;;;;;5054904;28;20883;-72
2022/11/10 09:28:16;;;;;;;5.50;2.10;;;13.10;99.90;;;;;;5054415;28;20486;-73
2022/11/10 09:30:44;;;;;;;3.63;2.40;;;13.30;99.90;;;;;;5054000;28;20410;-73
2022/11/10 09:33:09;;;;;;;6.27;2.07;;;13.40;99.90;;;;;;5063410;22;20497;-74
2022/11/10 09:35:35;;;;;;;3.30;1.33;;;13.50;99.90;;;;;;5035053;28;20509;-74
2022/11/10 09:38:01;;;;;;;5.00;1.70;;;13.70;99.90;;;;;;5035773;28;20220;-75
2022/11/10 09:40:42;;;;;;;2.83;1.60;;;13.60;99.90;;;;;;5034416;28;20173;-72
2022/11/10 09:43:18;;;;;;;2.67;1.20;;;13.50;99.90;;;;;;5048919;28;20197;-78
2022/11/10 09:45:47;;;;;;;2.83;1.80;;;13.40;99.90;;;;;;5035300;28;21005;-76
2022/11/10 09:48:15;;;;;;;4.77;1.90;;;13.50;99.90;;;;;;5036279;28;20415;-76
2022/11/10 09:50:56;;;;;;;1.70;1.30;;;13.70;99.90;;;;;;5034245;28;20467;-76
2022/11/10 09:53:32;;;;;;;2.87;1.73;;;13.90;99.90;;;;;;5034185;28;20423;-76
2022/11/10 09:56:02;;;;;;;5.20;1.20;;;13.70;99.90;;;;;;5035100;28;20439;-75
2022/11/10 09:58:37;;;;;;;3.83;1.40;;;13.70;99.90;;;;;;5035341;28;20981;-75
2022/11/10 10:01:35;;;;;;;4.17;1.10;;;13.80;99.90;;;;;;5034658;28;20740;-75
2022/11/10 10:04:26;;;;;;;4.10;1.10;;;14.10;99.90;;;;;;5034821;28;20843;-76
2022/11/10 10:07:18;;;;;;;4.20;1.30;;;14.30;99.90;;;;;;5033904;28;20440;-75
2022/11/10 10:10:04;;;;;;;3.33;1.10;;;14.20;99.90;;;;;;5019599;28;20476;-75
2022/11/10 10:12:56;;;;;;;4.97;1.63;;;14.30;99.90;;;;;;5033653;28;20419;-74
2022/11/10 10:15:28;;;;;;;3.90;1.70;;;14.40;99.90;;;;;;5033903;28;20483;-76
2022/11/10 10:18:08;;;;;;;4.63;1.97;;;14.50;99.90;;;;;;5035724;28;20394;-75
2022/11/10 10:20:49;;;;;;;3.90;1.30;;;14.60;99.90;;;;;;5035781;28;20393;-76
2022/11/10 10:23:34;;;;;;;2.43;1.30;;;14.60;99.90;;;;;;5035479;28;20425;-76
2022/11/10 10:26:00;;;;;;;3.30;1.20;;;14.60;99.90;;;;;;5033722;28;20392;-76
2022/11/10 10:28:34;;;;;;;3.03;1.40;;;14.70;99.90;;;;;;5034628;28;20434;-75
2022/11/10 10:31:17;;;;;;;4.80;1.50;;;14.70;99.90;;;;;;5038100;28;20763;-76
2022/11/10 10:33:44;;;;;;;3.00;1.50;;;14.70;99.90;;;;;;5034650;28;20536;-74
2022/11/10 10:36:18;;;;;;;4.87;1.40;;;14.80;99.90;;;;;;5035191;28;20462;-74
2022/11/10 10:38:46;;;;;;;3.57;1.40;;;15.00;99.90;;;;;;5034403;28;20751;-76
2022/11/10 10:41:29;;;;;;;3.80;1.63;;;15.00;99.90;;;;;;5034093;28;20402;-73
2022/11/10 10:43:57;;;;;;;2.67;1.17;;;15.20;99.90;;;;;;5032834;28;20466;-74
2022/11/10 10:46:25;;;;;;;3.67;1.40;;;15.60;99.90;;;;;;5033096;28;20417;-73
2022/11/10 10:49:24;;;;;;;3.87;1.73;;;16.70;99.90;;;;;;5034193;28;20475;-74
2022/11/10 10:52:05;;;;;;;2.70;1.30;;;19.40;99.90;;;;;;5021493;28;20599;-75
2022/11/10 10:54:32;;;;;;;4.27;1.17;;;21.10;99.90;;;;;;5033208;28;20477;-76
2022/11/10 10:57:28;;;;;;;2.37;1.03;;;22.50;98.50;;;;;;5031215;28;20397;-75
2022/11/10 11:00:29;;;;;;;2.57;1.00;;;24.20;95.90;;;;;;5033868;28;20378;-73
2022/11/10 11:03:03;;;;;;;3.30;1.40;;;24.00;92.90;;;;;;5015070;28;20437;-73
2022/11/10 11:05:29;;;;;;;3.97;1.50;;;25.40;90.20;;;;;;5017173;28;20406;-73
2022/11/10 11:07:59;;;;;;;3.13;1.30;;;26.10;84.20;;;;;;5017412;28;20414;-73
2022/11/10 11:10:34;;;;;;;2.53;1.40;;;25.40;87.00;;;;;;5017654;28;20201;-75
2022/11/10 11:13:26;;;;;;;2.57;1.00;;;26.40;85.20;;;;;;5020044;28;20480;-73
2022/11/10 11:16:06;;;;;;;2.10;1.03;;;27.20;78.30;;;;;;5016774;28;20453;-74
2022/11/10 11:18:33;;;;;;;2.93;1.30;;;27.40;75.40;;;;;;5017559;28;20387;-72
2022/11/10 11:21:12;;;;;;;6.20;1.37;;;28.10;74.10;;;;;;5017828;28;20932;-72
2022/11/10 11:23:50;;;;;;;4.43;1.40;;;27.60;68.10;;;;;;5017815;28;20835;-73
2022/11/10 11:26:30;;;;;;;4.70;1.37;;;27.20;72.40;;;;;;5016920;28;20390;-73
2022/11/10 11:29:06;;;;;;;1.80;1.00;;;26.70;71.80;;;;;;5015702;28;20411;-72
2022/11/10 11:31:40;;;;;;;3.37;1.50;;;28.30;71.00;;;;;;5016740;28;20417;-73
2022/11/10 11:34:16;;;;;;;2.27;1.10;;;29.20;67.90;;;;;;5017126;28;20403;-73
2022/11/10 11:37:08;;;;;;;2.33;1.10;;;29.30;67.30;;;;;;5037560;28;20504;-74
2022/11/10 11:40:04;;;;;;;2.23;1.10;;;28.90;63.00;;;;;;5025693;28;20445;-73
2022/11/10 11:42:56;;;;;;;2.60;0.90;;;28.70;63.70;;;;;;5036532;28;20905;-73
2022/11/10 11:45:28;;;;;;;4.33;1.50;;;27.50;62.60;;;;;;5034062;28;20426;-74
2022/11/10 11:48:25;;;;;;;3.67;1.30;;;27.20;63.30;;;;;;5036369;28;20405;-73
2022/11/10 11:50:59;;;;;;;2.20;0.90;;;27.90;67.30;;;;;;5032028;28;20795;-74
2022/11/10 11:53:43;;;;;;;2.23;0.90;;;28.30;63.50;;;;;;5036009;28;20414;-73
2022/11/10 11:56:26;;;;;;;3.10;1.40;;;28.70;62.50;;;;;;5035892;28;20900;-74
2022/11/10 11:58:54;;;;;;;3.47;1.17;;;28.60;62.60;;;;;;5035947;28;20481;-74
2022/11/10 12:01:47;;;;;;;2.23;1.17;;;27.20;63.70;;;;;;5036353;28;20836;-75
2022/11/10 12:04:34;;;;;;;2.90;0.90;;;26.20;62.50;;;;;;5036743;28;20371;-73
2022/11/10 12:07:24;;;;;;;3.17;1.03;;;26.40;65.80;;;;;;5036142;28;20398;-76
2022/11/10 12:10:13;;;;;;;2.40;0.90;;;25.40;65.30;;;;;;5036924;28;20442;-77
2022/11/10 12:13:04;;;;;;;1.80;1.07;;;25.80;65.90;;;;;;5036620;28;20426;-77
2022/11/10 12:15:38;;;;;;;1.57;0.80;;;26.30;68.00;;;;;;5036803;28;20437;-77
2022/11/10 12:18:28;;;;;;;2.97;1.20;;;26.60;65.10;;;;;;5036629;28;20820;-77
2022/11/10 12:21:22;;;;;;;1.80;0.93;;;26.80;65.80;;;;;;5034671;28;21011;-77
2022/11/10 12:24:05;;;;;;;2.50;1.10;;;26.80;61.50;;;;;;5032518;28;20509;-76
2022/11/10 12:26:50;;;;;;;5.90;1.43;;;27.60;62.70;;;;;;5037975;28;20429;-77
2022/11/10 12:29:51;;;;;;;3.23;0.97;;;28.40;58.70;;;;;;5036885;28;20887;-77
2022/11/10 12:32:32;;;;;;;2.30;0.90;;;29.00;59.10;;;;;;5036209;28;20456;-77
2022/11/10 12:35:22;;;;;;;1.90;1.00;;;29.80;58.10;;;;;;5036077;28;20442;-76
2022/11/10 12:38:26;;;;;;;1.93;0.90;;;30.00;56.70;;;;;;5034984;28;20919;-76
2022/11/10 12:41:00;;;;;;;2.43;0.90;;;30.00;54.30;;;;;;5004910;28;20441;-76
2022/11/10 12:43:34;;;;;;;4.10;1.17;;;29.10;57.10;;;;;;5034808;28;20457;-77
2022/11/10 12:46:04;;;;;;;2.17;1.10;;;27.10;60.10;;;;;;5033847;28;20414;-75
2022/11/10 12:48:59;;;;;;;1.87;0.97;;;25.60;65.00;;;;;;5035614;28;20461;-77
2022/11/10 12:51:47;;;;;;;4.30;1.40;;;25.20;66.10;;;;;;5028056;28;20424;-76
2022/11/10 12:54:15;;;;;;;1.97;1.00;;;26.10;67.30;;;;;;5035545;28;20437;-76
2022/11/10 12:56:55;;;;;;;2.20;0.80;;;26.90;65.20;;;;;;5035327;28;20489;-76
2022/11/10 12:59:28;;;;;;;3.60;1.20;;;27.30;62.50;;;;;;5035582;28;20918;-77
2022/11/10 13:02:01;;;;;;;2.57;1.00;;;27.30;61.00;;;;;;5035651;28;20849;-75
2022/11/10 13:04:26;;;;;;;1.97;1.17;;;27.30;61.70;;;;;;5035297;28;20406;-76
2022/11/10 13:06:59;;;;;;;1.50;0.83;;;26.50;64.30;;;;;;5033353;28;20460;-76
2022/11/10 13:09:37;;;;;;;2.23;1.07;;;25.20;66.30;;;;;;5035031;28;20163;-76
2022/11/10 13:12:21;;;;;;;3.33;1.10;;;23.90;70.20;;;;;;5034715;28;20497;-76
2022/11/10 13:14:47;;;;;;;3.33;1.00;;;22.00;75.10;;;;;;5034638;28;20519;-76